Time;durP1;ratioP1;P1;durP2;ratioP2;P2;SDS_P1;SDS_P2;PMS_P1;PMS_P2;Temp;Humidity;BMP_temperature;BMP_pressure;BME280_temperature;BME280_humidity;BME280_pressure;Samples;Min_cycle;Max_cycle;Signal;HPM_P1;HPM_P2
2023/05/04 00:02:20;;;;;;;7.82;3.83;;;;;;;;;;5053800;28;20025;-68
2023/05/04 00:04:46;;;;;;;8.20;3.83;;;;;;;;;;5053639;28;20132;-67
2023/05/04 00:07:11;;;;;;;5.65;3.55;;;;;;;;;;5035826;28;20057;-68
2023/05/04 00:09:37;;;;;;;6.43;3.80;;;;;;;;;;5049489;28;20409;-67
2023/05/04 00:12:03;;;;;;;5.65;3.85;;;;;;;;;;5050903;28;20051;-68
2023/05/04 00:14:29;;;;;;;7.63;3.45;;;;;;;;;;5048355;28;20032;-67
2023/05/04 00:16:55;;;;;;;7.72;3.45;;;;;;;;;;5053167;28;20517;-66
2023/05/04 00:19:20;;;;;;;9.75;4.05;;;;;;;;;;5053416;28;20029;-67
2023/05/04 00:21:46;;;;;;;6.80;3.35;;;;;;;;;;5050088;28;20060;-67
2023/05/04 00:24:12;;;;;;;9.70;3.58;;;;;;;;;;5064286;28;20036;-68
2023/05/04 00:26:37;;;;;;;10.30;3.40;;;;;;;;;;5048047;28;20035;-68
2023/05/04 00:29:04;;;;;;;7.57;3.22;;;;;;;;;;5049321;28;20033;-68
2023/05/04 00:31:29;;;;;;;6.63;3.92;;;;;;;;;;5046404;28;20043;-68
2023/05/04 00:33:55;;;;;;;5.72;3.35;;;;;;;;;;5042160;28;20048;-68
2023/05/04 00:36:21;;;;;;;6.60;3.60;;;;;;;;;;5042295;28;20025;-67
2023/05/04 00:38:51;;;;;;;6.57;3.10;;;;;;;;;;5042005;28;20041;-67
2023/05/04 00:41:18;;;;;;;8.13;3.40;;;;;;;;;;5031021;28;20087;-67
2023/05/04 00:43:44;;;;;;;9.95;3.53;;;;;;;;;;5040570;28;20083;-67
2023/05/04 00:46:11;;;;;;;8.45;3.58;;;;;;;;;;5043656;28;20383;-67
2023/05/04 00:48:38;;;;;;;7.28;3.63;;;;;;;;;;5047177;28;20025;-67
2023/05/04 00:51:05;;;;;;;7.22;3.50;;;;;;;;;;5045240;28;20191;-67
2023/05/04 00:53:31;;;;;;;7.47;3.75;;;;;;;;;;5051926;28;20387;-67
2023/05/04 00:55:57;;;;;;;9.90;3.33;;;;;;;;;;5053220;28;20402;-68
2023/05/04 00:58:23;;;;;;;5.40;3.10;;;;;;;;;;5043188;28;20033;-68
2023/05/04 01:00:50;;;;;;;7.57;3.08;;;;;;;;;;5049772;28;20041;-67
2023/05/04 01:03:16;;;;;;;4.63;2.67;;;;;;;;;;5052630;28;20057;-68
2023/05/04 01:05:48;;;;;;;17.98;4.18;;;;;;;;;;5049377;28;20032;-67
2023/05/04 01:08:19;;;;;;;5.95;3.10;;;;;;;;;;5048753;28;20372;-67
2023/05/04 01:10:48;;;;;;;6.72;3.65;;;;;;;;;;5039613;28;20505;-67
2023/05/04 01:13:15;;;;;;;11.52;3.65;;;;;;;;;;5047128;28;20021;-67
2023/05/04 01:15:41;;;;;;;5.20;3.22;;;;;;;;;;5044054;28;20052;-67
2023/05/04 01:18:08;;;;;;;10.73;3.60;;;;;;;;;;5049490;28;20025;-67
2023/05/04 01:20:34;;;;;;;5.38;3.33;;;;;;;;;;5052709;28;20029;-69
2023/05/04 01:23:02;;;;;;;5.25;3.40;;;;;;;;;;5049802;28;20099;-68
2023/05/04 01:25:34;;;;;;;7.28;3.30;;;;;;;;;;5050563;28;20033;-68
2023/05/04 01:28:17;;;;;;;6.70;3.13;;;;;;;;;;5044701;28;20029;-68
2023/05/04 01:30:44;;;;;;;7.25;3.05;;;;;;;;;;5045086;28;20504;-66
2023/05/04 01:33:11;;;;;;;5.50;2.70;;;;;;;;;;5051502;28;20205;-67
2023/05/04 01:35:37;;;;;;;7.22;3.00;;;;;;;;;;5047405;28;20029;-68
2023/05/04 01:38:03;;;;;;;4.80;2.97;;;;;;;;;;5045663;28;20024;-67
2023/05/04 01:40:29;;;;;;;7.45;2.85;;;;;;;;;;5047751;28;20408;-68
2023/05/04 01:42:55;;;;;;;7.30;3.03;;;;;;;;;;5049671;28;20074;-67
2023/05/04 01:45:21;;;;;;;5.65;2.80;;;;;;;;;;5042247;28;20041;-68
2023/05/04 01:47:47;;;;;;;8.48;3.05;;;;;;;;;;5051170;28;20028;-68
2023/05/04 01:50:13;;;;;;;5.13;3.00;;;;;;;;;;5051330;28;20041;-71
2023/05/04 01:52:39;;;;;;;8.77;3.08;;;;;;;;;;5049783;28;20082;-68
2023/05/04 01:55:05;;;;;;;6.68;3.90;;;;;;;;;;5045076;28;20030;-68
2023/05/04 01:57:31;;;;;;;6.45;3.13;;;;;;;;;;5047437;28;20501;-68
2023/05/04 01:59:57;;;;;;;4.90;3.50;;;;;;;;;;5042615;28;20037;-68
2023/05/04 02:02:24;;;;;;;6.50;3.63;;;;;;;;;;5049191;28;20028;-68
2023/05/04 02:04:50;;;;;;;5.55;3.40;;;;;;;;;;5045642;28;20037;-67
2023/05/04 02:07:15;;;;;;;5.40;3.47;;;;;;;;;;5075503;28;20024;-68
2023/05/04 02:09:41;;;;;;;5.93;3.20;;;;;;;;;;5045346;28;20033;-68
2023/05/04 02:12:07;;;;;;;6.32;3.60;;;;;;;;;;5045372;28;20017;-67
2023/05/04 02:14:33;;;;;;;8.30;3.30;;;;;;;;;;5051127;28;20174;-68
2023/05/04 02:16:59;;;;;;;6.13;3.53;;;;;;;;;;5048952;28;20021;-68
2023/05/04 02:19:24;;;;;;;8.23;4.10;;;;;;;;;;5042508;28;20456;-67
2023/05/04 02:21:51;;;;;;;7.78;3.30;;;;;;;;;;5049458;28;20028;-68
2023/05/04 02:24:17;;;;;;;10.88;3.53;;;;;;;;;;5042223;28;20487;-68
2023/05/04 02:26:43;;;;;;;6.63;3.60;;;;;;;;;;5049628;28;20024;-68
2023/05/04 02:29:09;;;;;;;9.95;4.00;;;;;;;;;;5042903;28;20037;-68
2023/05/04 02:31:35;;;;;;;16.00;5.05;;;;;;;;;;5050687;28;20150;-68
2023/05/04 02:34:01;;;;;;;24.55;4.22;;;;;;;;;;5046041;28;20034;-67
2023/05/04 02:36:27;;;;;;;13.75;4.55;;;;;;;;;;5050648;28;20487;-68
2023/05/04 02:38:54;;;;;;;12.30;4.53;;;;;;;;;;5045958;28;20052;-67
2023/05/04 02:41:19;;;;;;;9.98;5.55;;;;;;;;;;5050448;28;20024;-67
2023/05/04 02:43:45;;;;;;;9.15;4.65;;;;;;;;;;5047655;28;20039;-67
2023/05/04 02:46:11;;;;;;;9.50;3.90;;;;;;;;;;5048946;28;20032;-68
2023/05/04 02:48:37;;;;;;;6.88;3.67;;;;;;;;;;5046849;28;20067;-68
2023/05/04 02:51:03;;;;;;;9.57;4.25;;;;;;;;;;5050655;28;20450;-67
2023/05/04 02:53:28;;;;;;;13.88;3.88;;;;;;;;;;5048421;28;20032;-67
2023/05/04 02:55:54;;;;;;;17.38;4.80;;;;;;;;;;5046509;28;20021;-68
2023/05/04 02:58:19;;;;;;;17.80;4.72;;;;;;;;;;5045856;28;20029;-67
2023/05/04 03:00:45;;;;;;;7.28;4.60;;;;;;;;;;5046053;28;20036;-67
2023/05/04 03:03:11;;;;;;;9.82;3.78;;;;;;;;;;5024541;28;20033;-67
2023/05/04 03:05:37;;;;;;;11.65;3.72;;;;;;;;;;5051612;28;20029;-67
2023/05/04 03:08:03;;;;;;;10.82;3.90;;;;;;;;;;5043285;28;20059;-68
2023/05/04 03:10:29;;;;;;;8.60;3.70;;;;;;;;;;5047193;28;20084;-67
2023/05/04 03:12:54;;;;;;;9.65;3.72;;;;;;;;;;5039394;28;20513;-68
2023/05/04 03:15:20;;;;;;;7.03;3.60;;;;;;;;;;5038815;28;20482;-68
2023/05/04 03:17:46;;;;;;;9.07;4.20;;;;;;;;;;5044288;28;20041;-68
2023/05/04 03:20:12;;;;;;;6.43;3.60;;;;;;;;;;5042634;28;20025;-67
2023/05/04 03:22:39;;;;;;;11.60;3.80;;;;;;;;;;5051193;28;20028;-68
2023/05/04 03:25:06;;;;;;;6.78;4.03;;;;;;;;;;5053738;28;20082;-67
2023/05/04 03:27:32;;;;;;;15.98;3.90;;;;;;;;;;5041848;28;20068;-68
2023/05/04 03:29:58;;;;;;;15.50;5.20;;;;;;;;;;5050493;28;20053;-68
2023/05/04 03:32:25;;;;;;;7.28;3.70;;;;;;;;;;5050396;28;20094;-68
2023/05/04 03:34:51;;;;;;;7.45;4.40;;;;;;;;;;5051440;28;20108;-67
2023/05/04 03:37:18;;;;;;;8.68;4.10;;;;;;;;;;5050004;28;20105;-67
2023/05/04 03:39:44;;;;;;;15.40;4.63;;;;;;;;;;5045201;28;20439;-67
2023/05/04 03:42:10;;;;;;;12.70;5.32;;;;;;;;;;5039900;28;20043;-68
2023/05/04 03:44:36;;;;;;;9.23;4.75;;;;;;;;;;5050891;28;20097;-68
2023/05/04 03:47:01;;;;;;;13.30;5.00;;;;;;;;;;5042646;28;20154;-68
2023/05/04 03:49:28;;;;;;;9.20;5.43;;;;;;;;;;5041307;28;20021;-68
2023/05/04 03:51:54;;;;;;;11.80;5.20;;;;;;;;;;5031915;28;20095;-68
2023/05/04 03:54:21;;;;;;;15.43;5.82;;;;;;;;;;5029749;28;20400;-67
2023/05/04 03:56:47;;;;;;;11.90;5.20;;;;;;;;;;5042478;28;20106;-68
2023/05/04 03:59:15;;;;;;;16.15;5.32;;;;;;;;;;5045647;28;20033;-68
2023/05/04 04:01:41;;;;;;;14.10;5.63;;;;;;;;;;5049424;28;20387;-69
2023/05/04 04:04:07;;;;;;;16.85;5.75;;;;;;;;;;5049376;28;20052;-69
2023/05/04 04:06:34;;;;;;;15.15;5.68;;;;;;;;;;5049405;28;20033;-67
2023/05/04 04:09:00;;;;;;;21.30;7.65;;;;;;;;;;5049427;28;20206;-68
2023/05/04 04:11:26;;;;;;;13.43;6.53;;;;;;;;;;5049497;28;20130;-68
2023/05/04 04:13:52;;;;;;;15.82;7.10;;;;;;;;;;5049159;28;20032;-68
2023/05/04 04:16:19;;;;;;;20.30;8.07;;;;;;;;;;5050412;28;20029;-68
2023/05/04 04:18:45;;;;;;;11.18;7.13;;;;;;;;;;5049956;28;20036;-68
2023/05/04 04:21:11;;;;;;;20.48;6.65;;;;;;;;;;5050405;28;20037;-70
2023/05/04 04:23:37;;;;;;;12.18;5.68;;;;;;;;;;5050647;28;20112;-68
2023/05/04 04:26:05;;;;;;;9.75;5.90;;;;;;;;;;5054267;28;20429;-68
2023/05/04 04:28:32;;;;;;;13.18;5.80;;;;;;;;;;5054496;28;20112;-67
2023/05/04 04:30:58;;;;;;;10.65;5.78;;;;;;;;;;5054504;28;20079;-67
2023/05/04 04:33:24;;;;;;;11.82;4.80;;;;;;;;;;5054139;28;20025;-67
2023/05/04 04:35:50;;;;;;;13.23;6.65;;;;;;;;;;5054323;28;20102;-67
2023/05/04 04:38:16;;;;;;;12.73;5.88;;;;;;;;;;5053785;28;20020;-68
2023/05/04 04:40:42;;;;;;;17.27;6.07;;;;;;;;;;5054762;28;20029;-68
2023/05/04 04:43:07;;;;;;;12.85;5.40;;;;;;;;;;5053930;28;20154;-68
2023/05/04 04:45:34;;;;;;;18.30;5.95;;;;;;;;;;5053728;28;20041;-68
2023/05/04 04:48:00;;;;;;;10.75;5.53;;;;;;;;;;5053832;28;20429;-67
2023/05/04 04:50:27;;;;;;;12.38;5.55;;;;;;;;;;5053536;28;20033;-70
2023/05/04 04:52:53;;;;;;;11.18;5.47;;;;;;;;;;5044138;28;20022;-71
2023/05/04 04:55:19;;;;;;;13.10;5.78;;;;;;;;;;5033665;28;20044;-70
2023/05/04 04:57:45;;;;;;;12.80;6.55;;;;;;;;;;5052154;28;20040;-71
2023/05/04 05:00:14;;;;;;;11.60;6.53;;;;;;;;;;5053626;28;20067;-70
2023/05/04 05:02:40;;;;;;;9.60;6.10;;;;;;;;;;5053276;28;20033;-71
2023/05/04 05:05:06;;;;;;;13.52;6.63;;;;;;;;;;5068673;28;20110;-71
2023/05/04 05:07:32;;;;;;;8.45;5.05;;;;;;;;;;5053488;28;20040;-71
2023/05/04 05:09:58;;;;;;;20.73;7.90;;;;;;;;;;5053354;28;20142;-71
2023/05/04 05:12:25;;;;;;;9.77;5.63;;;;;;;;;;5052393;28;20029;-71
2023/05/04 05:14:51;;;;;;;8.07;5.05;;;;;;;;;;5050857;28;20032;-73
2023/05/04 05:17:18;;;;;;;18.73;5.25;;;;;;;;;;5049869;28;20494;-72
2023/05/04 05:19:43;;;;;;;14.95;5.03;;;;;;;;;;5052843;28;20037;-71
2023/05/04 05:22:09;;;;;;;15.15;4.82;;;;;;;;;;5052720;28;20108;-71
2023/05/04 05:24:36;;;;;;;15.63;4.75;;;;;;;;;;5053014;28;20040;-71
2023/05/04 05:27:02;;;;;;;9.05;4.60;;;;;;;;;;5051466;28;20049;-72
2023/05/04 05:29:27;;;;;;;8.88;4.57;;;;;;;;;;5052844;28;20513;-70
2023/05/04 05:31:53;;;;;;;13.95;4.40;;;;;;;;;;5052852;28;20082;-72
2023/05/04 05:34:19;;;;;;;10.27;4.32;;;;;;;;;;5051710;28;20119;-71
2023/05/04 05:36:45;;;;;;;11.80;4.30;;;;;;;;;;5052028;28;20368;-71
2023/05/04 05:39:11;;;;;;;7.13;4.20;;;;;;;;;;5044784;28;20040;-71
2023/05/04 05:41:36;;;;;;;6.40;3.97;;;;;;;;;;5043456;28;20118;-71
2023/05/04 05:44:02;;;;;;;19.73;5.47;;;;;;;;;;5049158;28;20040;-72
2023/05/04 05:46:28;;;;;;;16.13;6.85;;;;;;;;;;5052935;28;20493;-72
2023/05/04 05:48:54;;;;;;;13.35;6.28;;;;;;;;;;5067038;28;20133;-71
2023/05/04 05:51:19;;;;;;;12.70;5.65;;;;;;;;;;5052677;28;20031;-72
2023/05/04 05:53:45;;;;;;;10.43;5.38;;;;;;;;;;5051338;28;20029;-70
2023/05/04 05:56:13;;;;;;;19.63;6.13;;;;;;;;;;5052618;28;20028;-71
2023/05/04 05:58:41;;;;;;;7.97;5.00;;;;;;;;;;5050243;28;20406;-70
2023/05/04 06:01:06;;;;;;;11.15;5.03;;;;;;;;;;5045102;28;20029;-71
2023/05/04 06:03:32;;;;;;;11.52;4.70;;;;;;;;;;5046631;28;20075;-72
2023/05/04 06:05:57;;;;;;;16.65;5.15;;;;;;;;;;5052149;28;20339;-71
2023/05/04 06:08:24;;;;;;;10.80;5.55;;;;;;;;;;5050721;28;20120;-72
2023/05/04 06:10:53;;;;;;;10.90;4.72;;;;;;;;;;5046833;28;20424;-72
2023/05/04 06:13:19;;;;;;;18.08;5.75;;;;;;;;;;5045560;28;20025;-70
2023/05/04 06:15:54;;;;;;;13.13;5.13;;;;;;;;;;5045586;28;20094;-71
2023/05/04 06:18:21;;;;;;;12.38;4.55;;;;;;;;;;5044010;28;20035;-73
2023/05/04 06:20:47;;;;;;;7.40;4.53;;;;;;;;;;5045660;28;20070;-72
2023/05/04 06:23:15;;;;;;;13.05;5.57;;;;;;;;;;5043791;28;20406;-73
2023/05/04 06:25:41;;;;;;;9.75;5.07;;;;;;;;;;5048030;28;20461;-73
2023/05/04 06:28:07;;;;;;;8.60;5.07;;;;;;;;;;5041426;28;20111;-72
2023/05/04 06:30:32;;;;;;;7.45;3.88;;;;;;;;;;5043535;28;20106;-72
2023/05/04 06:32:58;;;;;;;7.78;3.42;;;;;;;;;;5046369;28;20051;-71
2023/05/04 06:35:24;;;;;;;15.45;4.95;;;;;;;;;;5045475;28;20395;-72
2023/05/04 06:37:50;;;;;;;13.10;4.97;;;;;;;;;;5046524;28;20024;-71
2023/05/04 06:40:16;;;;;;;16.58;6.75;;;;;;;;;;5037205;28;20490;-70
2023/05/04 06:42:44;;;;;;;11.00;6.35;;;;;;;;;;5045517;28;20068;-71
2023/05/04 06:45:11;;;;;;;10.38;5.57;;;;;;;;;;5041604;28;20021;-70
2023/05/04 06:47:37;;;;;;;14.80;6.18;;;;;;;;;;5042672;28;20037;-70
2023/05/04 06:50:10;;;;;;;15.50;7.07;;;;;;;;;;5047877;28;20056;-71
2023/05/04 06:52:40;;;;;;;14.20;6.32;;;;;;;;;;5046521;28;20129;-70
2023/05/04 06:55:07;;;;;;;12.38;7.47;;;;;;;;;;5041561;28;20570;-71
2023/05/04 06:57:33;;;;;;;13.23;7.18;;;;;;;;;;5036344;28;20029;-70
2023/05/04 06:59:59;;;;;;;21.23;6.80;;;;;;;;;;5039033;28;20036;-71
2023/05/04 07:02:24;;;;;;;17.88;7.18;;;;;;;;;;5045711;28;20029;-71
2023/05/04 07:04:51;;;;;;;11.70;7.53;;;;;;;;;;5042424;28;20029;-71
2023/05/04 07:07:18;;;;;;;15.63;6.28;;;;;;;;;;5046124;28;20168;-70
2023/05/04 07:09:46;;;;;;;11.23;5.75;;;;;;;;;;5034053;28;20363;-71
2023/05/04 07:12:12;;;;;;;14.60;5.95;;;;;;;;;;5042321;28;20033;-70
2023/05/04 07:14:38;;;;;;;16.48;5.60;;;;;;;;;;5047229;28;20035;-72
2023/05/04 07:17:04;;;;;;;14.13;5.55;;;;;;;;;;5044498;28;20025;-71
2023/05/04 07:19:29;;;;;;;10.85;5.28;;;;;;;;;;5038841;28;20505;-72
2023/05/04 07:21:56;;;;;;;10.57;4.85;;;;;;;;;;5040619;28;20044;-72
2023/05/04 07:24:21;;;;;;;6.72;4.95;;;;;;;;;;5039565;28;20025;-71
2023/05/04 07:26:47;;;;;;;6.82;4.35;;;;;;;;;;5037669;28;20036;-71
2023/05/04 07:29:13;;;;;;;8.43;4.55;;;;;;;;;;5047087;28;20021;-73
2023/05/04 07:31:40;;;;;;;16.73;6.82;;;;;;;;;;5038789;28;20032;-72
2023/05/04 07:34:06;;;;;;;6.15;4.30;;;;;;;;;;5033921;28;20029;-70
2023/05/04 07:36:34;;;;;;;8.57;5.05;;;;;;;;;;5034808;28;20030;-72
2023/05/04 07:39:00;;;;;;;10.65;5.22;;;;;;;;;;5039853;28;20048;-72
2023/05/04 07:41:25;;;;;;;7.22;4.82;;;;;;;;;;5039409;28;20079;-73
2023/05/04 07:43:51;;;;;;;7.63;5.00;;;;;;;;;;5043693;28;20029;-71
2023/05/04 07:46:17;;;;;;;11.57;5.55;;;;;;;;;;5033856;28;20045;-71
2023/05/04 07:48:43;;;;;;;13.75;5.97;;;;;;;;;;5047967;28;20021;-72
2023/05/04 07:51:15;;;;;;;8.52;4.30;;;;;;;;;;5038732;28;20075;-71
2023/05/04 07:53:42;;;;;;;5.13;3.97;;;;;;;;;;5041521;28;20083;-72
2023/05/04 07:56:11;;;;;;;9.48;5.53;;;;;;;;;;5039215;28;20044;-72
2023/05/04 07:58:37;;;;;;;13.32;4.15;;;;;;;;;;5042282;28;20514;-72
2023/05/04 08:01:03;;;;;;;41.10;6.20;;;;;;;;;;5047781;28;20142;-72
2023/05/04 08:03:29;;;;;;;5.68;2.67;;;;;;;;;;5046943;28;20029;-72
2023/05/04 08:05:55;;;;;;;3.45;2.90;;;;;;;;;;5060349;28;20032;-72
2023/05/04 08:08:21;;;;;;;4.13;2.40;;;;;;;;;;5048511;28;20071;-74
2023/05/04 08:10:47;;;;;;;5.70;2.58;;;;;;;;;;5056066;28;20487;-73
2023/05/04 08:13:12;;;;;;;5.47;3.17;;;;;;;;;;5042727;28;20402;-73
2023/05/04 08:15:38;;;;;;;7.30;2.65;;;;;;;;;;5045489;28;20057;-72
2023/05/04 08:18:05;;;;;;;6.45;2.40;;;;;;;;;;5039145;28;20059;-72
2023/05/04 08:20:31;;;;;;;6.40;2.70;;;;;;;;;;5044262;28;20052;-72
2023/05/04 08:22:57;;;;;;;7.35;3.15;;;;;;;;;;5051678;28;20037;-72
2023/05/04 08:25:23;;;;;;;7.88;3.13;;;;;;;;;;5047505;28;20112;-73
2023/05/04 08:27:49;;;;;;;3.00;2.20;;;;;;;;;;5048380;28;20041;-72
2023/05/04 08:30:15;;;;;;;5.97;2.63;;;;;;;;;;5050723;28;20032;-74
2023/05/04 08:32:41;;;;;;;3.50;2.55;;;;;;;;;;5043555;28;20025;-72
2023/05/04 08:35:07;;;;;;;7.07;2.72;;;;;;;;;;5037644;28;20509;-72
2023/05/04 08:37:33;;;;;;;4.00;2.55;;;;;;;;;;5041508;28;20518;-72
2023/05/04 08:39:58;;;;;;;4.13;2.60;;;;;;;;;;5041178;28;20120;-73
2023/05/04 08:42:30;;;;;;;6.25;3.00;;;;;;;;;;5043199;28;20068;-72
2023/05/04 08:44:57;;;;;;;4.45;2.80;;;;;;;;;;5046948;28;20040;-71
2023/05/04 08:47:27;;;;;;;4.80;3.35;;;;;;;;;;5046532;28;20035;-72
2023/05/04 08:49:55;;;;;;;9.55;4.13;;;;;;;;;;5045636;28;20116;-73
2023/05/04 08:52:25;;;;;;;4.03;3.08;;;;;;;;;;5043935;28;20028;-73
2023/05/04 08:54:55;;;;;;;6.60;3.47;;;;;;;;;;5050879;28;20126;-73
2023/05/04 08:57:24;;;;;;;4.63;3.70;;;;;;;;;;5041629;28;20061;-72
2023/05/04 08:59:54;;;;;;;5.32;3.58;;;;;;;;;;5050796;28;20033;-73
2023/05/04 09:02:22;;;;;;;5.28;3.83;;;;;;;;;;5047159;28;20095;-72
2023/05/04 09:04:49;;;;;;;5.28;4.00;;;;;;;;;;5030576;28;20039;-72
2023/05/04 09:07:19;;;;;;;6.10;4.15;;;;;;;;;;5046614;28;20037;-71
2023/05/04 09:09:47;;;;;;;5.13;4.30;;;;;;;;;;5046128;28;20398;-72
2023/05/04 09:12:13;;;;;;;6.82;4.50;;;;;;;;;;5048486;28;20426;-72
2023/05/04 09:14:40;;;;;;;6.30;4.40;;;;;;;;;;5050028;28;20120;-73
2023/05/04 09:17:14;;;;;;;9.73;4.78;;;;;;;;;;5046343;28;20023;-72
2023/05/04 09:19:42;;;;;;;8.32;4.60;;;;;;;;;;5041061;28;20033;-73
2023/05/04 09:22:16;;;;;;;13.55;5.03;;;;;;;;;;5047273;28;20490;-72
2023/05/04 09:24:42;;;;;;;8.48;5.25;;;;;;;;;;5044010;28;20406;-73
2023/05/04 09:27:12;;;;;;;6.95;4.43;;;;;;;;;;5048508;28;20474;-72
2023/05/04 09:29:41;;;;;;;10.85;4.50;;;;;;;;;;5047963;28;20067;-72
2023/05/04 09:32:11;;;;;;;6.20;4.47;;;;;;;;;;5049630;28;20036;-72
2023/05/04 09:34:52;;;;;;;6.68;4.57;;;;;;;;;;5042826;28;20090;-72
2023/05/04 09:37:21;;;;;;;7.97;4.00;;;;;;;;;;5029793;28;20469;-71
2023/05/04 09:39:52;;;;;;;8.57;4.35;;;;;;;;;;5048907;28;20025;-72
2023/05/04 09:42:19;;;;;;;7.60;5.03;;;;;;;;;;5045940;28;20063;-72
2023/05/04 09:44:45;;;;;;;7.47;4.30;;;;;;;;;;5043171;28;20028;-72
2023/05/04 09:47:16;;;;;;;5.65;4.45;;;;;;;;;;5047195;28;20379;-71
2023/05/04 09:49:41;;;;;;;6.32;4.63;;;;;;;;;;5044308;28;20036;-71
2023/05/04 09:52:07;;;;;;;9.70;4.60;;;;;;;;;;5046264;28;20036;-72
2023/05/04 09:54:34;;;;;;;7.13;3.80;;;;;;;;;;5044508;28;20475;-71
2023/05/04 09:57:14;;;;;;;7.95;4.10;;;;;;;;;;5047631;28;20024;-72
2023/05/04 09:59:40;;;;;;;9.25;4.55;;;;;;;;;;5049106;28;20079;-71
2023/05/04 10:02:07;;;;;;;11.00;5.40;;;;;;;;;;5042986;28;20024;-72
2023/05/04 10:04:33;;;;;;;7.05;4.10;;;;;;;;;;5046752;28;20115;-71
2023/05/04 10:07:05;;;;;;;7.45;4.40;;;;;;;;;;5043591;28;20128;-73
2023/05/04 10:09:32;;;;;;;6.40;4.00;;;;;;;;;;5046961;28;20960;-73
2023/05/04 10:12:04;;;;;;;7.55;4.70;;;;;;;;;;5046980;28;20021;-73
2023/05/04 10:14:34;;;;;;;11.27;5.38;;;;;;;;;;5043423;28;20051;-73
2023/05/04 10:16:59;;;;;;;7.82;4.63;;;;;;;;;;5045391;28;20036;-73
2023/05/04 10:19:55;;;;;;;6.45;4.93;;;;;;;;;;5050311;28;20025;-72
2023/05/04 10:22:49;;;;;;;14.15;5.47;;;;;;;;;;5039143;28;20091;-72
2023/05/04 10:25:27;;;;;;;;;;;;;;;;;;5051401;28;20039;-73
2023/05/04 10:28:01;;;;;;;11.20;4.53;;;;;;;;;;5050320;28;19928;-72
2023/05/04 10:30:30;;;;;;;6.70;4.68;;;;;;;;;;5050995;28;20391;-71
2023/05/04 10:32:57;;;;;;;7.75;5.53;;;;;;;;;;5051768;28;20163;-73
2023/05/04 10:35:24;;;;;;;7.07;4.93;;;;;;;;;;5051912;28;20151;-72
2023/05/04 10:37:54;;;;;;;9.82;5.20;;;;;;;;;;5050754;28;20036;-73
2023/05/04 10:40:38;;;;;;;8.13;5.70;;;;;;;;;;5051652;28;20063;-73
2023/05/04 10:43:05;;;;;;;10.32;5.30;;;;;;;;;;5051550;28;20048;-72
2023/05/04 10:45:38;;;;;;;7.82;5.30;;;;;;;;;;5047438;28;20021;-73
2023/05/04 10:48:06;;;;;;;11.68;5.20;;;;;;;;;;5040135;28;20024;-72
2023/05/04 10:50:50;;;;;;;8.45;5.72;;;;;;;;;;5040144;28;20025;-71
2023/05/04 10:53:17;;;;;;;7.25;5.35;;;;;;;;;;5039125;28;20382;-72
2023/05/04 10:55:47;;;;;;;7.07;5.32;;;;;;;;;;5049452;28;20052;-72
2023/05/04 10:58:17;;;;;;;11.88;6.22;;;;;;;;;;5049431;28;20124;-73
2023/05/04 11:00:46;;;;;;;10.70;5.68;;;;;;;;;;5049798;28;20410;-71
2023/05/04 11:03:12;;;;;;;6.80;4.85;;;;;;;;;;5041854;28;20028;-70
2023/05/04 11:05:47;;;;;;;13.13;5.60;;;;;;;;;;5031490;28;20036;-70
2023/05/04 11:08:25;;;;;;;12.90;5.03;;;;;;;;;;5030816;28;20449;-71
2023/05/04 11:11:05;;;;;;;7.40;5.05;;;;;;;;;;5031395;28;20034;-73
2023/05/04 11:13:40;;;;;;;8.23;5.28;;;;;;;;;;5029389;28;20403;-71
2023/05/04 11:16:06;;;;;;;7.72;5.28;;;;;;;;;;5029846;28;20108;-71
2023/05/04 11:18:33;;;;;;;6.55;5.00;;;;;;;;;;5028353;28;20079;-72
2023/05/04 11:20:59;;;;;;;7.88;5.18;;;;;;;;;;5030691;28;20108;-73
2023/05/04 11:23:26;;;;;;;8.07;3.95;;;;;;;;;;5030608;28;20025;-72
2023/05/04 11:25:52;;;;;;;4.70;3.63;;;;;;;;;;5030397;28;20033;-71
2023/05/04 11:28:18;;;;;;;12.70;5.47;;;;;;;;;;5030465;28;20390;-72
2023/05/04 11:30:46;;;;;;;7.82;5.45;;;;;;;;;;5031465;28;20051;-71
2023/05/04 11:33:16;;;;;;;6.47;4.70;;;;;;;;;;5031221;28;20100;-72
2023/05/04 11:35:44;;;;;;;10.05;5.35;;;;;;;;;;5035669;28;20108;-72
2023/05/04 11:38:10;;;;;;;6.38;4.63;;;;;;;;;;5035435;28;20028;-72
2023/05/04 11:40:39;;;;;;;7.55;5.85;;;;;;;;;;5055375;28;20084;-72
2023/05/04 11:43:10;;;;;;;7.78;5.32;;;;;;;;;;5047964;28;20029;-72
2023/05/04 11:45:38;;;;;;;7.32;4.55;;;;;;;;;;5054311;28;20021;-70
2023/05/04 11:48:04;;;;;;;7.35;4.47;;;;;;;;;;5055435;28;20028;-69
2023/05/04 11:50:31;;;;;;;7.78;4.95;;;;;;;;;;5052727;28;20021;-73
2023/05/04 11:53:05;;;;;;;8.82;4.90;;;;;;;;;;5048822;28;20524;-71
2023/05/04 11:55:31;;;;;;;6.28;4.47;;;;;;;;;;5054693;28;20032;-71
2023/05/04 11:58:08;;;;;;;6.40;4.00;;;;;;;;;;5055279;28;20120;-72
2023/05/04 12:00:38;;;;;;;9.45;4.97;;;;;;;;;;5055027;28;20459;-71
2023/05/04 12:03:11;;;;;;;12.05;4.82;;;;;;;;;;5055093;28;20048;-71
2023/05/04 12:05:45;;;;;;;10.45;5.20;;;;;;;;;;5054923;28;20082;-72
2023/05/04 12:08:21;;;;;;;8.68;5.72;;;;;;;;;;5054719;28;20033;-71
2023/05/04 12:10:47;;;;;;;9.00;6.13;;;;;;;;;;5070126;28;20052;-72
2023/05/04 12:13:16;;;;;;;12.82;7.75;;;;;;;;;;5070499;28;20077;-72
2023/05/04 12:15:42;;;;;;;10.40;6.22;;;;;;;;;;5054654;28;20041;-73
2023/05/04 12:18:19;;;;;;;13.05;6.82;;;;;;;;;;5054399;28;20041;-71
2023/05/04 12:20:45;;;;;;;15.05;6.13;;;;;;;;;;5054583;28;20032;-72
2023/05/04 12:23:11;;;;;;;15.18;7.82;;;;;;;;;;5054467;28;20078;-75
2023/05/04 12:25:36;;;;;;;8.93;5.70;;;;;;;;;;5055055;28;20041;-71
2023/05/04 12:28:02;;;;;;;7.00;5.25;;;;;;;;;;5054356;28;20021;-71
2023/05/04 12:30:29;;;;;;;8.82;5.50;;;;;;;;;;5054509;28;20088;-71
2023/05/04 12:32:55;;;;;;;8.52;5.65;;;;;;;;;;5054623;28;20032;-72
2023/05/04 12:35:21;;;;;;;6.75;5.03;;;;;;;;;;5054630;28;20029;-70
2023/05/04 12:37:46;;;;;;;8.45;5.30;;;;;;;;;;5054504;28;20048;-71
2023/05/04 12:40:12;;;;;;;9.65;5.13;;;;;;;;;;5054459;28;20510;-71
2023/05/04 12:42:41;;;;;;;11.45;5.25;;;;;;;;;;5054330;28;20068;-73
2023/05/04 12:45:07;;;;;;;7.75;4.45;;;;;;;;;;5068542;28;20044;-70
2023/05/04 12:47:33;;;;;;;9.50;4.70;;;;;;;;;;5053838;28;20486;-71
2023/05/04 12:50:01;;;;;;;8.63;4.43;;;;;;;;;;5054536;28;20112;-72
2023/05/04 12:52:27;;;;;;;6.68;2.92;;;;;;;;;;5068774;28;20021;-73
2023/05/04 12:54:53;;;;;;;8.02;3.38;;;;;;;;;;5054018;28;20091;-70
2023/05/04 12:57:19;;;;;;;7.53;3.70;;;;;;;;;;5053813;28;20425;-72
2023/05/04 12:59:44;;;;;;;7.63;3.67;;;;;;;;;;5053959;28;20042;-72
2023/05/04 13:02:10;;;;;;;10.23;4.05;;;;;;;;;;5053476;28;20083;-70
2023/05/04 13:04:36;;;;;;;8.05;4.15;;;;;;;;;;5053630;28;20032;-72
2023/05/04 13:07:02;;;;;;;5.65;4.35;;;;;;;;;;5052444;28;20086;-71
2023/05/04 13:09:27;;;;;;;7.18;3.17;;;;;;;;;;5052170;28;20468;-70
2023/05/04 13:11:53;;;;;;;10.35;4.38;;;;;;;;;;5054846;28;20040;-73
2023/05/04 13:14:19;;;;;;;6.30;3.50;;;;;;;;;;5053422;28;20490;-71
2023/05/04 13:16:45;;;;;;;7.88;4.63;;;;;;;;;;5054142;28;20025;-70
2023/05/04 13:19:11;;;;;;;7.93;4.20;;;;;;;;;;5068323;28;20402;-70
2023/05/04 13:21:36;;;;;;;7.50;4.22;;;;;;;;;;5053157;28;20025;-71
2023/05/04 13:24:03;;;;;;;8.25;4.20;;;;;;;;;;5053297;28;20036;-73
2023/05/04 13:26:31;;;;;;;5.80;3.60;;;;;;;;;;5054174;28;20021;-74
2023/05/04 13:28:56;;;;;;;4.55;3.67;;;;;;;;;;5052301;28;20500;-75
2023/05/04 13:31:22;;;;;;;5.97;3.28;;;;;;;;;;5053759;28;20025;-73
2023/05/04 13:33:49;;;;;;;6.13;2.60;;;;;;;;;;5051842;28;20037;-72
2023/05/04 13:36:14;;;;;;;5.88;2.70;;;;;;;;;;5053352;28;20387;-73
2023/05/04 13:38:40;;;;;;;6.15;2.70;;;;;;;;;;5051107;28;20040;-70
2023/05/04 13:41:06;;;;;;;6.32;2.78;;;;;;;;;;5068226;28;20028;-72
2023/05/04 13:43:32;;;;;;;4.43;2.75;;;;;;;;;;5053163;28;20053;-71
2023/05/04 13:46:01;;;;;;;5.43;2.78;;;;;;;;;;5053017;28;20099;-73
2023/05/04 13:48:28;;;;;;;6.90;3.45;;;;;;;;;;5052493;28;20136;-72
2023/05/04 13:50:55;;;;;;;8.10;3.10;;;;;;;;;;5051636;28;20036;-71
2023/05/04 13:53:21;;;;;;;12.65;3.08;;;;;;;;;;5051129;28;20064;-70
2023/05/04 13:55:47;;;;;;;7.18;3.25;;;;;;;;;;5052225;28;20113;-72
2023/05/04 13:58:12;;;;;;;7.53;3.38;;;;;;;;;;5051814;28;20037;-72
2023/05/04 14:00:38;;;;;;;8.93;3.60;;;;;;;;;;5052412;28;20104;-72
2023/05/04 14:03:04;;;;;;;7.93;3.83;;;;;;;;;;5052108;28;20433;-73
2023/05/04 14:05:29;;;;;;;5.32;3.33;;;;;;;;;;5051876;28;20029;-72
2023/05/04 14:07:55;;;;;;;9.18;3.80;;;;;;;;;;5067601;28;20037;-72
2023/05/04 14:10:21;;;;;;;6.00;3.80;;;;;;;;;;5052362;28;20302;-73
2023/05/04 14:12:47;;;;;;;7.03;3.90;;;;;;;;;;5052040;28;20047;-71
2023/05/04 14:15:12;;;;;;;6.90;3.70;;;;;;;;;;5052442;28;20059;-72
2023/05/04 14:17:39;;;;;;;7.70;3.92;;;;;;;;;;5051653;28;20057;-72
2023/05/04 14:20:06;;;;;;;7.05;4.18;;;;;;;;;;5051817;28;20083;-72
2023/05/04 14:22:32;;;;;;;7.35;4.45;;;;;;;;;;5050816;28;20064;-73
2023/05/04 14:24:57;;;;;;;9.02;4.35;;;;;;;;;;5060185;28;20068;-74
2023/05/04 14:27:23;;;;;;;6.75;4.75;;;;;;;;;;5044925;28;20061;-73
2023/05/04 14:29:51;;;;;;;7.80;4.45;;;;;;;;;;5045293;28;20328;-73
2023/05/04 14:32:18;;;;;;;10.05;3.97;;;;;;;;;;5042966;28;20072;-73
2023/05/04 14:34:45;;;;;;;4.97;3.95;;;;;;;;;;5035591;28;20039;-74
2023/05/04 14:37:11;;;;;;;4.07;3.30;;;;;;;;;;5046741;28;20067;-74
2023/05/04 14:39:38;;;;;;;5.60;3.72;;;;;;;;;;5036263;28;20021;-72